sensor_id;sensor_type;location;lat;lon;timestamp;P1;durP1;ratioP1;P2;durP2;ratioP2
2940;SDS011;1480;51.456;6.670;2023-04-24T00:01:56;2.23;;;1.67;;
2940;SDS011;1480;51.456;6.670;2023-04-24T00:04:23;2.00;;;1.50;;
2940;SDS011;1480;51.456;6.670;2023-04-24T00:06:53;2.60;;;1.63;;
2940;SDS011;1480;51.456;6.670;2023-04-24T00:09:22;2.30;;;1.70;;
2940;SDS011;1480;51.456;6.670;2023-04-24T00:11:50;2.70;;;1.77;;
2940;SDS011;1480;51.456;6.670;2023-04-24T00:14:17;1.90;;;1.57;;
2940;SDS011;1480;51.456;6.670;2023-04-24T00:16:44;2.57;;;1.70;;
2940;SDS011;1480;51.456;6.670;2023-04-24T00:19:11;4.47;;;2.17;;
2940;SDS011;1480;51.456;6.670;2023-04-24T00:21:38;2.67;;;2.10;;
2940;SDS011;1480;51.456;6.670;2023-04-24T00:24:05;3.70;;;2.43;;
2940;SDS011;1480;51.456;6.670;2023-04-24T00:26:34;3.20;;;1.87;;
2940;SDS011;1480;51.456;6.670;2023-04-24T00:29:02;2.10;;;1.60;;
2940;SDS011;1480;51.456;6.670;2023-04-24T00:31:29;5.20;;;2.23;;
2940;SDS011;1480;51.456;6.670;2023-04-24T00:33:57;3.60;;;2.43;;
2940;SDS011;1480;51.456;6.670;2023-04-24T00:36:24;3.50;;;2.43;;
2940;SDS011;1480;51.456;6.670;2023-04-24T00:38:52;5.20;;;2.20;;
2940;SDS011;1480;51.456;6.670;2023-04-24T00:41:19;3.23;;;2.30;;
2940;SDS011;1480;51.456;6.670;2023-04-24T00:43:46;2.80;;;2.17;;
2940;SDS011;1480;51.456;6.670;2023-04-24T00:46:14;5.30;;;3.27;;
2940;SDS011;1480;51.456;6.670;2023-04-24T00:48:40;4.27;;;2.80;;
2940;SDS011;1480;51.456;6.670;2023-04-24T00:51:07;3.30;;;2.73;;
2940;SDS011;1480;51.456;6.670;2023-04-24T00:53:34;3.50;;;3.20;;
2940;SDS011;1480;51.456;6.670;2023-04-24T00:56:03;6.03;;;3.43;;
2940;SDS011;1480;51.456;6.670;2023-04-24T00:58:31;4.87;;;3.77;;
2940;SDS011;1480;51.456;6.670;2023-04-24T01:00:58;7.20;;;3.40;;
2940;SDS011;1480;51.456;6.670;2023-04-24T01:03:28;4.20;;;3.30;;
2940;SDS011;1480;51.456;6.670;2023-04-24T01:05:56;4.73;;;3.83;;
2940;SDS011;1480;51.456;6.670;2023-04-24T01:08:24;5.47;;;4.53;;
2940;SDS011;1480;51.456;6.670;2023-04-24T01:10:51;7.30;;;4.40;;
2940;SDS011;1480;51.456;6.670;2023-04-24T01:13:18;6.10;;;4.00;;
2940;SDS011;1480;51.456;6.670;2023-04-24T01:15:46;5.33;;;4.50;;
2940;SDS011;1480;51.456;6.670;2023-04-24T01:18:13;5.67;;;4.30;;
2940;SDS011;1480;51.456;6.670;2023-04-24T01:20:42;12.73;;;4.87;;
2940;SDS011;1480;51.456;6.670;2023-04-24T01:23:11;6.97;;;5.60;;
2940;SDS011;1480;51.456;6.670;2023-04-24T01:25:38;7.13;;;5.73;;
2940;SDS011;1480;51.456;6.670;2023-04-24T01:28:08;6.90;;;5.40;;
2940;SDS011;1480;51.456;6.670;2023-04-24T01:30:35;5.40;;;4.40;;
2940;SDS011;1480;51.456;6.670;2023-04-24T01:33:02;6.57;;;4.60;;
2940;SDS011;1480;51.456;6.670;2023-04-24T01:35:29;7.13;;;5.20;;
2940;SDS011;1480;51.456;6.670;2023-04-24T01:37:55;7.80;;;6.13;;
2940;SDS011;1480;51.456;6.670;2023-04-24T01:40:25;8.13;;;5.73;;
2940;SDS011;1480;51.456;6.670;2023-04-24T01:42:52;6.20;;;5.00;;
2940;SDS011;1480;51.456;6.670;2023-04-24T01:45:19;9.33;;;5.80;;
2940;SDS011;1480;51.456;6.670;2023-04-24T01:47:47;7.33;;;5.63;;
2940;SDS011;1480;51.456;6.670;2023-04-24T01:50:16;6.67;;;4.43;;
2940;SDS011;1480;51.456;6.670;2023-04-24T01:52:43;10.73;;;4.80;;
2940;SDS011;1480;51.456;6.670;2023-04-24T01:55:11;6.07;;;4.63;;
2940;SDS011;1480;51.456;6.670;2023-04-24T01:57:39;12.40;;;5.77;;
2940;SDS011;1480;51.456;6.670;2023-04-24T02:00:06;7.57;;;5.80;;
2940;SDS011;1480;51.456;6.670;2023-04-24T02:02:40;14.80;;;5.90;;
2940;SDS011;1480;51.456;6.670;2023-04-24T02:05:07;6.67;;;4.67;;
2940;SDS011;1480;51.456;6.670;2023-04-24T02:07:37;8.20;;;3.80;;
2940;SDS011;1480;51.456;6.670;2023-04-24T02:10:05;6.30;;;3.90;;
2940;SDS011;1480;51.456;6.670;2023-04-24T02:12:32;5.97;;;4.03;;
2940;SDS011;1480;51.456;6.670;2023-04-24T02:15:00;4.20;;;2.73;;
2940;SDS011;1480;51.456;6.670;2023-04-24T02:17:28;8.80;;;4.73;;
2940;SDS011;1480;51.456;6.670;2023-04-24T02:19:56;4.50;;;2.90;;
2940;SDS011;1480;51.456;6.670;2023-04-24T02:22:25;5.10;;;2.63;;
2940;SDS011;1480;51.456;6.670;2023-04-24T02:24:52;3.83;;;2.30;;
2940;SDS011;1480;51.456;6.670;2023-04-24T02:27:19;3.53;;;2.33;;
2940;SDS011;1480;51.456;6.670;2023-04-24T02:29:46;4.60;;;2.87;;
2940;SDS011;1480;51.456;6.670;2023-04-24T02:32:16;3.77;;;2.27;;
2940;SDS011;1480;51.456;6.670;2023-04-24T02:34:45;6.73;;;3.13;;
2940;SDS011;1480;51.456;6.670;2023-04-24T02:37:12;3.73;;;2.97;;
2940;SDS011;1480;51.456;6.670;2023-04-24T02:39:39;3.13;;;2.40;;
2940;SDS011;1480;51.456;6.670;2023-04-24T02:42:05;2.97;;;1.80;;
2940;SDS011;1480;51.456;6.670;2023-04-24T02:44:34;2.13;;;1.80;;
2940;SDS011;1480;51.456;6.670;2023-04-24T02:47:00;3.87;;;2.13;;
2940;SDS011;1480;51.456;6.670;2023-04-24T02:49:29;4.20;;;2.83;;
2940;SDS011;1480;51.456;6.670;2023-04-24T02:51:55;3.20;;;2.23;;
2940;SDS011;1480;51.456;6.670;2023-04-24T02:54:24;3.23;;;2.50;;
2940;SDS011;1480;51.456;6.670;2023-04-24T02:56:51;4.27;;;2.73;;
2940;SDS011;1480;51.456;6.670;2023-04-24T02:59:18;1.80;;;1.40;;
2940;SDS011;1480;51.456;6.670;2023-04-24T03:01:44;4.57;;;2.30;;
2940;SDS011;1480;51.456;6.670;2023-04-24T03:04:14;2.27;;;1.13;;
2940;SDS011;1480;51.456;6.670;2023-04-24T03:06:43;2.20;;;1.50;;
2940;SDS011;1480;51.456;6.670;2023-04-24T03:09:10;3.60;;;2.37;;
2940;SDS011;1480;51.456;6.670;2023-04-24T03:11:36;2.40;;;2.03;;
2940;SDS011;1480;51.456;6.670;2023-04-24T03:14:03;2.53;;;1.60;;
2940;SDS011;1480;51.456;6.670;2023-04-24T03:16:32;2.67;;;1.30;;
2940;SDS011;1480;51.456;6.670;2023-04-24T03:18:59;3.33;;;1.63;;
2940;SDS011;1480;51.456;6.670;2023-04-24T03:21:29;1.77;;;1.43;;
2940;SDS011;1480;51.456;6.670;2023-04-24T03:23:58;2.03;;;1.00;;
2940;SDS011;1480;51.456;6.670;2023-04-24T03:26:25;1.90;;;0.87;;
2940;SDS011;1480;51.456;6.670;2023-04-24T03:29:03;2.00;;;1.80;;
2940;SDS011;1480;51.456;6.670;2023-04-24T03:31:37;1.30;;;1.10;;
2940;SDS011;1480;51.456;6.670;2023-04-24T03:34:04;1.47;;;0.97;;
2940;SDS011;1480;51.456;6.670;2023-04-24T03:36:31;1.63;;;0.90;;
2940;SDS011;1480;51.456;6.670;2023-04-24T03:38:59;1.60;;;0.80;;
2940;SDS011;1480;51.456;6.670;2023-04-24T03:41:29;2.23;;;0.70;;
2940;SDS011;1480;51.456;6.670;2023-04-24T03:44:16;1.13;;;0.73;;
2940;SDS011;1480;51.456;6.670;2023-04-24T03:46:45;1.10;;;0.60;;
2940;SDS011;1480;51.456;6.670;2023-04-24T03:49:11;1.10;;;0.70;;
2940;SDS011;1480;51.456;6.670;2023-04-24T03:51:42;1.10;;;0.60;;
2940;SDS011;1480;51.456;6.670;2023-04-24T03:54:17;1.10;;;0.60;;
2940;SDS011;1480;51.456;6.670;2023-04-24T03:56:44;1.10;;;0.60;;
2940;SDS011;1480;51.456;6.670;2023-04-24T03:59:23;1.10;;;0.60;;
2940;SDS011;1480;51.456;6.670;2023-04-24T04:02:18;1.60;;;1.00;;
2940;SDS011;1480;51.456;6.670;2023-04-24T04:04:46;1.93;;;0.77;;
2940;SDS011;1480;51.456;6.670;2023-04-24T04:07:14;2.27;;;1.00;;
2940;SDS011;1480;51.456;6.670;2023-04-24T04:09:43;1.10;;;0.60;;
2940;SDS011;1480;51.456;6.670;2023-04-24T04:12:10;1.60;;;0.80;;
2940;SDS011;1480;51.456;6.670;2023-04-24T04:14:38;1.03;;;0.60;;
2940;SDS011;1480;51.456;6.670;2023-04-24T04:17:05;1.40;;;0.80;;
2940;SDS011;1480;51.456;6.670;2023-04-24T04:19:32;3.30;;;0.97;;
2940;SDS011;1480;51.456;6.670;2023-04-24T04:21:58;1.10;;;0.70;;
2940;SDS011;1480;51.456;6.670;2023-04-24T04:24:37;1.20;;;0.70;;
2940;SDS011;1480;51.456;6.670;2023-04-24T04:27:10;1.10;;;0.60;;
2940;SDS011;1480;51.456;6.670;2023-04-24T04:29:59;1.10;;;0.70;;
2940;SDS011;1480;51.456;6.670;2023-04-24T04:32:30;1.40;;;1.03;;
2940;SDS011;1480;51.456;6.670;2023-04-24T04:35:03;1.10;;;0.60;;
2940;SDS011;1480;51.456;6.670;2023-04-24T04:37:35;1.10;;;0.60;;
2940;SDS011;1480;51.456;6.670;2023-04-24T04:40:24;1.27;;;0.93;;
2940;SDS011;1480;51.456;6.670;2023-04-24T04:42:59;1.20;;;0.70;;
2940;SDS011;1480;51.456;6.670;2023-04-24T04:45:30;1.10;;;0.60;;
2940;SDS011;1480;51.456;6.670;2023-04-24T04:48:23;1.73;;;0.90;;
2940;SDS011;1480;51.456;6.670;2023-04-24T04:50:54;1.33;;;0.70;;
2940;SDS011;1480;51.456;6.670;2023-04-24T04:53:30;1.10;;;0.67;;
2940;SDS011;1480;51.456;6.670;2023-04-24T04:55:57;1.93;;;1.50;;
2940;SDS011;1480;51.456;6.670;2023-04-24T04:58:32;1.10;;;0.60;;
2940;SDS011;1480;51.456;6.670;2023-04-24T05:01:00;1.10;;;0.60;;
2940;SDS011;1480;51.456;6.670;2023-04-24T05:03:32;1.00;;;0.60;;
2940;SDS011;1480;51.456;6.670;2023-04-24T05:06:04;1.10;;;0.67;;
2940;SDS011;1480;51.456;6.670;2023-04-24T05:08:46;2.03;;;1.37;;
2940;SDS011;1480;51.456;6.670;2023-04-24T05:11:24;1.10;;;0.50;;
2940;SDS011;1480;51.456;6.670;2023-04-24T05:13:53;1.10;;;0.60;;
2940;SDS011;1480;51.456;6.670;2023-04-24T05:16:29;1.10;;;0.63;;
2940;SDS011;1480;51.456;6.670;2023-04-24T05:18:57;1.47;;;0.63;;
2940;SDS011;1480;51.456;6.670;2023-04-24T05:21:29;1.30;;;0.60;;
2940;SDS011;1480;51.456;6.670;2023-04-24T05:23:58;1.10;;;0.70;;
2940;SDS011;1480;51.456;6.670;2023-04-24T05:26:57;1.53;;;1.03;;
2940;SDS011;1480;51.456;6.670;2023-04-24T05:29:34;1.10;;;0.70;;
2940;SDS011;1480;51.456;6.670;2023-04-24T05:32:03;1.07;;;0.60;;
2940;SDS011;1480;51.456;6.670;2023-04-24T05:34:30;1.20;;;0.93;;
2940;SDS011;1480;51.456;6.670;2023-04-24T05:37:06;1.57;;;1.00;;
2940;SDS011;1480;51.456;6.670;2023-04-24T05:39:35;1.10;;;0.60;;
2940;SDS011;1480;51.456;6.670;2023-04-24T05:42:02;1.10;;;0.70;;
2940;SDS011;1480;51.456;6.670;2023-04-24T05:44:29;1.10;;;0.60;;
2940;SDS011;1480;51.456;6.670;2023-04-24T05:46:59;1.10;;;0.60;;
2940;SDS011;1480;51.456;6.670;2023-04-24T05:49:30;1.10;;;0.60;;
2940;SDS011;1480;51.456;6.670;2023-04-24T05:52:02;1.10;;;0.60;;
2940;SDS011;1480;51.456;6.670;2023-04-24T05:54:30;2.23;;;1.43;;
2940;SDS011;1480;51.456;6.670;2023-04-24T05:56:57;1.10;;;0.60;;
2940;SDS011;1480;51.456;6.670;2023-04-24T05:59:33;1.10;;;0.60;;
2940;SDS011;1480;51.456;6.670;2023-04-24T06:02:02;1.10;;;0.60;;
2940;SDS011;1480;51.456;6.670;2023-04-24T06:04:29;1.10;;;0.70;;
2940;SDS011;1480;51.456;6.670;2023-04-24T06:06:57;1.10;;;0.67;;
2940;SDS011;1480;51.456;6.670;2023-04-24T06:09:24;1.10;;;0.60;;
2940;SDS011;1480;51.456;6.670;2023-04-24T06:11:51;1.33;;;1.20;;
2940;SDS011;1480;51.456;6.670;2023-04-24T06:14:20;1.10;;;0.70;;
2940;SDS011;1480;51.456;6.670;2023-04-24T06:17:07;1.10;;;0.67;;
2940;SDS011;1480;51.456;6.670;2023-04-24T06:19:38;1.10;;;0.70;;
2940;SDS011;1480;51.456;6.670;2023-04-24T06:22:06;1.07;;;0.70;;
2940;SDS011;1480;51.456;6.670;2023-04-24T06:24:33;1.10;;;0.80;;
2940;SDS011;1480;51.456;6.670;2023-04-24T06:27:00;1.10;;;0.70;;
2940;SDS011;1480;51.456;6.670;2023-04-24T06:29:27;1.10;;;0.70;;
2940;SDS011;1480;51.456;6.670;2023-04-24T06:31:53;1.10;;;0.67;;
2940;SDS011;1480;51.456;6.670;2023-04-24T06:34:21;1.10;;;0.70;;
2940;SDS011;1480;51.456;6.670;2023-04-24T06:36:48;1.10;;;0.60;;
2940;SDS011;1480;51.456;6.670;2023-04-24T06:39:15;1.10;;;0.70;;
2940;SDS011;1480;51.456;6.670;2023-04-24T06:41:41;1.10;;;0.60;;
2940;SDS011;1480;51.456;6.670;2023-04-24T06:44:19;1.10;;;0.60;;
2940;SDS011;1480;51.456;6.670;2023-04-24T06:46:46;1.00;;;0.70;;
2940;SDS011;1480;51.456;6.670;2023-04-24T06:49:13;1.10;;;0.70;;
2940;SDS011;1480;51.456;6.670;2023-04-24T06:51:42;1.10;;;0.70;;
2940;SDS011;1480;51.456;6.670;2023-04-24T06:54:09;1.10;;;0.60;;
2940;SDS011;1480;51.456;6.670;2023-04-24T06:56:36;1.10;;;0.70;;
2940;SDS011;1480;51.456;6.670;2023-04-24T06:59:03;1.10;;;0.70;;
2940;SDS011;1480;51.456;6.670;2023-04-24T07:01:30;1.03;;;0.60;;
2940;SDS011;1480;51.456;6.670;2023-04-24T07:03:56;1.10;;;0.70;;
2940;SDS011;1480;51.456;6.670;2023-04-24T07:06:23;1.10;;;0.70;;
2940;SDS011;1480;51.456;6.670;2023-04-24T07:08:52;1.07;;;0.63;;
2940;SDS011;1480;51.456;6.670;2023-04-24T07:11:18;1.10;;;0.63;;
2940;SDS011;1480;51.456;6.670;2023-04-24T07:13:46;1.10;;;0.73;;
2940;SDS011;1480;51.456;6.670;2023-04-24T07:16:12;1.07;;;0.70;;
2940;SDS011;1480;51.456;6.670;2023-04-24T07:18:39;1.10;;;0.70;;
2940;SDS011;1480;51.456;6.670;2023-04-24T07:21:06;1.10;;;0.60;;
2940;SDS011;1480;51.456;6.670;2023-04-24T07:23:35;1.10;;;0.70;;
2940;SDS011;1480;51.456;6.670;2023-04-24T07:26:04;1.10;;;0.70;;
2940;SDS011;1480;51.456;6.670;2023-04-24T07:28:30;1.10;;;0.70;;
2940;SDS011;1480;51.456;6.670;2023-04-24T07:30:57;1.10;;;0.70;;
2940;SDS011;1480;51.456;6.670;2023-04-24T07:33:25;1.10;;;0.70;;
2940;SDS011;1480;51.456;6.670;2023-04-24T07:35:51;1.10;;;0.70;;
2940;SDS011;1480;51.456;6.670;2023-04-24T07:38:18;1.10;;;0.70;;
2940;SDS011;1480;51.456;6.670;2023-04-24T07:40:47;1.00;;;0.60;;
2940;SDS011;1480;51.456;6.670;2023-04-24T07:43:15;1.10;;;0.70;;
2940;SDS011;1480;51.456;6.670;2023-04-24T07:45:42;1.10;;;0.60;;
2940;SDS011;1480;51.456;6.670;2023-04-24T07:48:08;1.03;;;0.60;;
2940;SDS011;1480;51.456;6.670;2023-04-24T07:50:35;1.10;;;0.70;;
2940;SDS011;1480;51.456;6.670;2023-04-24T07:53:02;1.10;;;0.60;;
2940;SDS011;1480;51.456;6.670;2023-04-24T07:55:29;1.10;;;0.60;;
2940;SDS011;1480;51.456;6.670;2023-04-24T07:57:55;1.00;;;0.60;;
2940;SDS011;1480;51.456;6.670;2023-04-24T08:00:23;1.00;;;0.60;;
2940;SDS011;1480;51.456;6.670;2023-04-24T08:02:50;1.07;;;0.63;;
2940;SDS011;1480;51.456;6.670;2023-04-24T08:05:17;1.00;;;0.60;;
2940;SDS011;1480;51.456;6.670;2023-04-24T08:07:44;1.00;;;0.60;;
2940;SDS011;1480;51.456;6.670;2023-04-24T08:10:13;1.10;;;0.60;;
2940;SDS011;1480;51.456;6.670;2023-04-24T08:12:40;1.00;;;0.60;;
2940;SDS011;1480;51.456;6.670;2023-04-24T08:15:07;1.00;;;0.60;;
2940;SDS011;1480;51.456;6.670;2023-04-24T08:17:36;1.00;;;0.60;;
2940;SDS011;1480;51.456;6.670;2023-04-24T08:20:03;1.10;;;0.60;;
2940;SDS011;1480;51.456;6.670;2023-04-24T08:22:31;1.00;;;0.60;;
2940;SDS011;1480;51.456;6.670;2023-04-24T08:24:59;1.20;;;0.90;;
2940;SDS011;1480;51.456;6.670;2023-04-24T08:27:26;1.00;;;0.60;;
2940;SDS011;1480;51.456;6.670;2023-04-24T08:29:53;1.00;;;0.60;;
2940;SDS011;1480;51.456;6.670;2023-04-24T08:32:20;1.00;;;0.60;;
2940;SDS011;1480;51.456;6.670;2023-04-24T08:34:48;1.10;;;0.60;;
2940;SDS011;1480;51.456;6.670;2023-04-24T08:37:15;1.10;;;0.70;;
2940;SDS011;1480;51.456;6.670;2023-04-24T08:39:41;1.00;;;0.60;;
2940;SDS011;1480;51.456;6.670;2023-04-24T08:42:08;1.03;;;0.60;;
2940;SDS011;1480;51.456;6.670;2023-04-24T08:44:35;1.10;;;0.70;;
2940;SDS011;1480;51.456;6.670;2023-04-24T08:47:02;1.10;;;0.70;;
2940;SDS011;1480;51.456;6.670;2023-04-24T08:49:29;1.10;;;0.60;;
2940;SDS011;1480;51.456;6.670;2023-04-24T08:51:57;1.00;;;0.60;;
2940;SDS011;1480;51.456;6.670;2023-04-24T08:54:24;1.10;;;0.60;;
2940;SDS011;1480;51.456;6.670;2023-04-24T08:56:51;1.00;;;0.60;;
2940;SDS011;1480;51.456;6.670;2023-04-24T08:59:20;1.00;;;0.60;;
2940;SDS011;1480;51.456;6.670;2023-04-24T09:01:47;1.10;;;0.70;;
2940;SDS011;1480;51.456;6.670;2023-04-24T09:04:14;1.10;;;0.60;;
2940;SDS011;1480;51.456;6.670;2023-04-24T09:06:43;1.03;;;0.70;;
2940;SDS011;1480;51.456;6.670;2023-04-24T09:09:12;1.00;;;0.60;;
2940;SDS011;1480;51.456;6.670;2023-04-24T09:11:39;1.07;;;0.63;;
2940;SDS011;1480;51.456;6.670;2023-04-24T09:14:06;1.10;;;0.60;;
2940;SDS011;1480;51.456;6.670;2023-04-24T09:16:33;1.40;;;1.03;;
2940;SDS011;1480;51.456;6.670;2023-04-24T09:19:00;1.00;;;0.70;;
2940;SDS011;1480;51.456;6.670;2023-04-24T09:21:31;1.00;;;0.60;;
2940;SDS011;1480;51.456;6.670;2023-04-24T09:23:58;1.00;;;0.60;;
2940;SDS011;1480;51.456;6.670;2023-04-24T09:26:27;1.10;;;0.70;;
2940;SDS011;1480;51.456;6.670;2023-04-24T09:28:56;1.00;;;0.70;;
2940;SDS011;1480;51.456;6.670;2023-04-24T09:31:23;1.00;;;0.60;;
2940;SDS011;1480;51.456;6.670;2023-04-24T09:33:54;1.10;;;0.70;;
2940;SDS011;1480;51.456;6.670;2023-04-24T09:36:26;1.03;;;0.70;;
2940;SDS011;1480;51.456;6.670;2023-04-24T09:38:55;1.00;;;0.60;;
2940;SDS011;1480;51.456;6.670;2023-04-24T09:41:24;1.30;;;1.00;;
2940;SDS011;1480;51.456;6.670;2023-04-24T09:43:53;1.00;;;0.70;;
2940;SDS011;1480;51.456;6.670;2023-04-24T09:46:21;1.00;;;0.63;;
2940;SDS011;1480;51.456;6.670;2023-04-24T09:48:55;1.00;;;0.70;;
2940;SDS011;1480;51.456;6.670;2023-04-24T09:51:32;1.00;;;0.70;;
2940;SDS011;1480;51.456;6.670;2023-04-24T09:54:00;1.00;;;0.60;;
2940;SDS011;1480;51.456;6.670;2023-04-24T09:56:33;1.07;;;0.70;;
2940;SDS011;1480;51.456;6.670;2023-04-24T09:59:06;1.00;;;0.70;;
2940;SDS011;1480;51.456;6.670;2023-04-24T10:01:34;1.00;;;0.60;;
2940;SDS011;1480;51.456;6.670;2023-04-24T10:04:03;1.00;;;0.70;;
2940;SDS011;1480;51.456;6.670;2023-04-24T10:06:32;1.07;;;0.70;;
2940;SDS011;1480;51.456;6.670;2023-04-24T10:08:59;1.03;;;0.70;;
2940;SDS011;1480;51.456;6.670;2023-04-24T10:11:26;1.00;;;0.70;;
2940;SDS011;1480;51.456;6.670;2023-04-24T10:13:55;1.00;;;0.60;;
2940;SDS011;1480;51.456;6.670;2023-04-24T10:16:22;1.00;;;0.60;;
2940;SDS011;1480;51.456;6.670;2023-04-24T10:18:49;1.03;;;0.70;;
2940;SDS011;1480;51.456;6.670;2023-04-24T10:21:17;1.10;;;0.70;;
2940;SDS011;1480;51.456;6.670;2023-04-24T10:23:44;1.00;;;0.60;;
2940;SDS011;1480;51.456;6.670;2023-04-24T10:26:12;1.00;;;0.70;;
2940;SDS011;1480;51.456;6.670;2023-04-24T10:28:42;1.00;;;0.67;;
2940;SDS011;1480;51.456;6.670;2023-04-24T10:31:13;1.00;;;0.60;;
2940;SDS011;1480;51.456;6.670;2023-04-24T10:33:40;1.00;;;0.70;;
2940;SDS011;1480;51.456;6.670;2023-04-24T10:36:07;1.00;;;0.70;;
2940;SDS011;1480;51.456;6.670;2023-04-24T10:38:35;1.00;;;0.60;;
2940;SDS011;1480;51.456;6.670;2023-04-24T10:41:06;1.00;;;0.70;;
2940;SDS011;1480;51.456;6.670;2023-04-24T10:43:34;1.00;;;0.60;;
2940;SDS011;1480;51.456;6.670;2023-04-24T10:46:01;1.00;;;0.60;;
2940;SDS011;1480;51.456;6.670;2023-04-24T10:48:30;1.00;;;0.63;;
2940;SDS011;1480;51.456;6.670;2023-04-24T10:50:59;1.10;;;0.70;;
2940;SDS011;1480;51.456;6.670;2023-04-24T10:53:27;1.00;;;0.60;;
2940;SDS011;1480;51.456;6.670;2023-04-24T10:55:57;1.00;;;0.60;;
2940;SDS011;1480;51.456;6.670;2023-04-24T10:58:35;1.00;;;0.60;;
2940;SDS011;1480;51.456;6.670;2023-04-24T11:01:03;1.00;;;0.60;;
2940;SDS011;1480;51.456;6.670;2023-04-24T11:03:32;1.07;;;0.63;;
2940;SDS011;1480;51.456;6.670;2023-04-24T11:06:00;1.00;;;0.60;;
2940;SDS011;1480;51.456;6.670;2023-04-24T11:08:28;1.03;;;0.60;;
2940;SDS011;1480;51.456;6.670;2023-04-24T11:11:00;1.10;;;0.70;;
2940;SDS011;1480;51.456;6.670;2023-04-24T11:16:38;1.00;;;0.60;;
2940;SDS011;1480;51.456;6.670;2023-04-24T11:19:17;1.10;;;0.60;;
2940;SDS011;1480;51.456;6.670;2023-04-24T11:21:46;1.00;;;0.60;;
2940;SDS011;1480;51.456;6.670;2023-04-24T11:24:24;1.07;;;0.60;;
2940;SDS011;1480;51.456;6.670;2023-04-24T11:26:56;1.00;;;0.60;;
2940;SDS011;1480;51.456;6.670;2023-04-24T11:29:38;1.00;;;0.60;;
2940;SDS011;1480;51.456;6.670;2023-04-24T11:32:15;1.00;;;0.53;;
2940;SDS011;1480;51.456;6.670;2023-04-24T11:34:51;1.10;;;0.60;;
2940;SDS011;1480;51.456;6.670;2023-04-24T11:37:19;1.10;;;0.60;;
2940;SDS011;1480;51.456;6.670;2023-04-24T11:39:46;1.10;;;0.60;;
2940;SDS011;1480;51.456;6.670;2023-04-24T11:42:17;1.00;;;0.50;;
2940;SDS011;1480;51.456;6.670;2023-04-24T11:44:44;1.20;;;0.80;;
2940;SDS011;1480;51.456;6.670;2023-04-24T11:47:12;1.10;;;0.70;;
2940;SDS011;1480;51.456;6.670;2023-04-24T11:49:39;1.10;;;0.60;;
2940;SDS011;1480;51.456;6.670;2023-04-24T11:52:07;1.10;;;0.60;;
2940;SDS011;1480;51.456;6.670;2023-04-24T11:54:34;1.03;;;0.60;;
2940;SDS011;1480;51.456;6.670;2023-04-24T11:57:03;1.07;;;0.60;;
2940;SDS011;1480;51.456;6.670;2023-04-24T11:59:34;1.10;;;0.60;;
2940;SDS011;1480;51.456;6.670;2023-04-24T12:02:01;1.10;;;0.60;;
2940;SDS011;1480;51.456;6.670;2023-04-24T12:04:37;4.80;;;1.23;;
2940;SDS011;1480;51.456;6.670;2023-04-24T12:07:05;1.10;;;0.60;;
2940;SDS011;1480;51.456;6.670;2023-04-24T12:09:44;1.97;;;0.90;;
2940;SDS011;1480;51.456;6.670;2023-04-24T12:12:12;1.20;;;0.80;;
2940;SDS011;1480;51.456;6.670;2023-04-24T12:14:47;1.00;;;0.60;;
2940;SDS011;1480;51.456;6.670;2023-04-24T12:17:14;1.10;;;0.60;;
2940;SDS011;1480;51.456;6.670;2023-04-24T12:19:45;1.00;;;0.60;;
2940;SDS011;1480;51.456;6.670;2023-04-24T12:22:12;1.00;;;0.60;;
2940;SDS011;1480;51.456;6.670;2023-04-24T12:24:58;1.07;;;0.60;;
2940;SDS011;1480;51.456;6.670;2023-04-24T12:27:26;1.10;;;0.57;;
2940;SDS011;1480;51.456;6.670;2023-04-24T12:29:55;1.10;;;0.60;;
2940;SDS011;1480;51.456;6.670;2023-04-24T12:32:22;1.10;;;0.60;;
2940;SDS011;1480;51.456;6.670;2023-04-24T12:34:50;1.10;;;0.60;;
2940;SDS011;1480;51.456;6.670;2023-04-24T12:37:17;1.10;;;0.53;;
2940;SDS011;1480;51.456;6.670;2023-04-24T12:39:46;1.03;;;0.60;;
2940;SDS011;1480;51.456;6.670;2023-04-24T12:42:26;1.10;;;0.60;;
2940;SDS011;1480;51.456;6.670;2023-04-24T12:44:55;1.10;;;0.60;;
2940;SDS011;1480;51.456;6.670;2023-04-24T12:47:23;1.40;;;0.70;;
2940;SDS011;1480;51.456;6.670;2023-04-24T12:49:50;1.10;;;0.60;;
2940;SDS011;1480;51.456;6.670;2023-04-24T12:52:17;1.10;;;0.60;;
2940;SDS011;1480;51.456;6.670;2023-04-24T12:54:45;1.10;;;0.60;;
2940;SDS011;1480;51.456;6.670;2023-04-24T12:57:13;1.10;;;0.60;;
2940;SDS011;1480;51.456;6.670;2023-04-24T12:59:40;1.10;;;0.60;;
2940;SDS011;1480;51.456;6.670;2023-04-24T13:02:06;1.10;;;0.60;;
2940;SDS011;1480;51.456;6.670;2023-04-24T13:04:34;1.10;;;0.50;;
2940;SDS011;1480;51.456;6.670;2023-04-24T13:07:00;1.10;;;0.60;;
2940;SDS011;1480;51.456;6.670;2023-04-24T13:09:27;1.10;;;0.50;;
2940;SDS011;1480;51.456;6.670;2023-04-24T13:11:54;1.10;;;0.60;;
2940;SDS011;1480;51.456;6.670;2023-04-24T13:14:22;1.10;;;0.60;;
2940;SDS011;1480;51.456;6.670;2023-04-24T13:16:52;1.10;;;0.50;;
2940;SDS011;1480;51.456;6.670;2023-04-24T13:19:19;1.10;;;0.60;;
2940;SDS011;1480;51.456;6.670;2023-04-24T13:21:46;1.10;;;0.60;;
2940;SDS011;1480;51.456;6.670;2023-04-24T13:24:15;1.10;;;0.60;;
2940;SDS011;1480;51.456;6.670;2023-04-24T13:26:42;1.20;;;0.60;;
2940;SDS011;1480;51.456;6.670;2023-04-24T13:29:09;1.10;;;0.60;;
2940;SDS011;1480;51.456;6.670;2023-04-24T13:31:37;1.10;;;0.60;;
2940;SDS011;1480;51.456;6.670;2023-04-24T13:34:04;1.10;;;0.60;;
2940;SDS011;1480;51.456;6.670;2023-04-24T13:36:31;1.10;;;0.50;;
2940;SDS011;1480;51.456;6.670;2023-04-24T13:38:57;1.10;;;0.60;;
2940;SDS011;1480;51.456;6.670;2023-04-24T13:41:24;1.10;;;0.60;;
2940;SDS011;1480;51.456;6.670;2023-04-24T13:43:51;1.10;;;0.60;;
2940;SDS011;1480;51.456;6.670;2023-04-24T13:46:18;1.10;;;0.60;;
2940;SDS011;1480;51.456;6.670;2023-04-24T13:48:46;1.10;;;0.57;;
2940;SDS011;1480;51.456;6.670;2023-04-24T13:51:12;1.10;;;0.60;;
2940;SDS011;1480;51.456;6.670;2023-04-24T13:53:39;1.10;;;0.60;;
2940;SDS011;1480;51.456;6.670;2023-04-24T13:56:06;1.10;;;0.50;;
2940;SDS011;1480;51.456;6.670;2023-04-24T13:58:34;1.10;;;0.60;;
2940;SDS011;1480;51.456;6.670;2023-04-24T14:01:02;1.10;;;0.50;;
2940;SDS011;1480;51.456;6.670;2023-04-24T14:03:28;1.10;;;0.60;;
2940;SDS011;1480;51.456;6.670;2023-04-24T14:05:59;1.10;;;0.60;;
2940;SDS011;1480;51.456;6.670;2023-04-24T14:08:25;1.10;;;0.60;;
2940;SDS011;1480;51.456;6.670;2023-04-24T14:10:52;1.10;;;0.60;;
2940;SDS011;1480;51.456;6.670;2023-04-24T14:13:19;1.10;;;0.60;;
2940;SDS011;1480;51.456;6.670;2023-04-24T14:15:46;1.10;;;0.60;;
2940;SDS011;1480;51.456;6.670;2023-04-24T14:18:15;1.10;;;0.53;;
2940;SDS011;1480;51.456;6.670;2023-04-24T14:20:42;1.10;;;0.60;;
2940;SDS011;1480;51.456;6.670;2023-04-24T14:23:10;1.10;;;0.60;;
2940;SDS011;1480;51.456;6.670;2023-04-24T14:25:39;1.10;;;0.60;;
2940;SDS011;1480;51.456;6.670;2023-04-24T14:28:06;1.10;;;0.60;;
2940;SDS011;1480;51.456;6.670;2023-04-24T14:30:33;1.10;;;0.60;;
2940;SDS011;1480;51.456;6.670;2023-04-24T14:33:02;1.10;;;0.60;;
2940;SDS011;1480;51.456;6.670;2023-04-24T14:35:29;1.10;;;0.70;;
2940;SDS011;1480;51.456;6.670;2023-04-24T14:37:59;1.10;;;0.70;;
2940;SDS011;1480;51.456;6.670;2023-04-24T14:40:27;1.10;;;0.60;;
2940;SDS011;1480;51.456;6.670;2023-04-24T14:42:54;1.10;;;0.60;;
2940;SDS011;1480;51.456;6.670;2023-04-24T14:45:24;1.10;;;0.60;;
2940;SDS011;1480;51.456;6.670;2023-04-24T14:47:51;1.10;;;0.60;;
2940;SDS011;1480;51.456;6.670;2023-04-24T14:50:18;1.00;;;0.60;;
2940;SDS011;1480;51.456;6.670;2023-04-24T14:52:45;1.03;;;0.60;;
2940;SDS011;1480;51.456;6.670;2023-04-24T14:55:12;1.07;;;0.60;;
2940;SDS011;1480;51.456;6.670;2023-04-24T14:57:42;1.00;;;0.60;;
2940;SDS011;1480;51.456;6.670;2023-04-24T15:00:09;1.10;;;0.60;;
2940;SDS011;1480;51.456;6.670;2023-04-24T15:02:36;1.07;;;0.60;;
2940;SDS011;1480;51.456;6.670;2023-04-24T15:05:07;1.10;;;0.60;;
2940;SDS011;1480;51.456;6.670;2023-04-24T15:07:34;1.10;;;0.60;;
2940;SDS011;1480;51.456;6.670;2023-04-24T15:10:01;1.10;;;0.60;;
2940;SDS011;1480;51.456;6.670;2023-04-24T15:12:28;1.10;;;0.60;;
2940;SDS011;1480;51.456;6.670;2023-04-24T15:14:57;1.10;;;0.60;;
2940;SDS011;1480;51.456;6.670;2023-04-24T15:17:23;1.10;;;0.60;;
2940;SDS011;1480;51.456;6.670;2023-04-24T15:19:53;1.10;;;0.60;;
2940;SDS011;1480;51.456;6.670;2023-04-24T15:22:20;1.10;;;0.60;;
2940;SDS011;1480;51.456;6.670;2023-04-24T15:24:47;1.10;;;0.60;;
2940;SDS011;1480;51.456;6.670;2023-04-24T15:27:13;1.10;;;0.53;;
2940;SDS011;1480;51.456;6.670;2023-04-24T15:29:41;1.10;;;0.53;;